Time,TemperatureF,DewpointF,PressureIn,WindDirection,WindDirectionDegrees,WindSpeedMPH,WindSpeedGustMPH,Humidity,HourlyPrecipIn,Conditions,Clouds,dailyrainin,SoftwareType,DateUTC
2013-09-02 00:00:00,73.6,68.5,29.83,WSW,238,3.5,3.5,84,0.00,CLR,,0.03,WeatherDisplay:10.37,2013-09-02 04:00:00,
2013-09-02 00:01:00,73.6,68.5,29.83,WSW,238,3.0,3.0,84,0.00,RA,,0.00,WeatherDisplay:10.37,2013-09-02 04:01:00,
2013-09-02 00:02:00,73.6,68.5,29.83,WSW,238,3.5,3.5,84,0.00,RA,,0.00,WeatherDisplay:10.37,2013-09-02 04:02:00,
2013-09-02 00:03:00,73.6,68.5,29.83,WSW,238,3.0,3.0,84,0.00,RA,,0.00,WeatherDisplay:10.37,2013-09-02 04:03:00,
2013-09-02 00:04:00,73.6,68.5,29.83,WSW,238,3.0,3.0,84,0.00,RA,,0.00,WeatherDisplay:10.37,2013-09-02 04:04:00,
2013-09-02 00:06:00,73.6,68.5,29.82,WSW,237,5.0,5.0,84,0.00,RA,,0.00,WeatherDisplay:10.37,2013-09-02 04:06:00,
2013-09-02 00:11:00,73.6,68.8,29.82,WSW,238,3.0,3.0,85,0.00,CLR,,0.00,WeatherDisplay:10.37,2013-09-02 04:11:00,
2013-09-02 00:16:00,73.6,68.8,29.82,SW,235,5.0,5.0,85,0.00,CLR,,0.00,WeatherDisplay:10.37,2013-09-02 04:16:00,
2013-09-02 00:21:00,73.7,68.9,29.82,SW,231,1.1,1.1,85,0.00,CLR,,0.00,WeatherDisplay:10.37,2013-09-02 04:21:00,
2013-09-02 00:26:00,73.8,69.0,29.82,SW,236,3.5,3.5,85,0.00,CLR,,0.00,WeatherDisplay:10.37,2013-09-02 04:26:00,
2013-09-02 00:31:00,73.7,68.9,29.82,SW,236,3.0,3.0,85,0.00,CLR,,0.00,WeatherDisplay:10.37,2013-09-02 04:31:00,
2013-09-02 00:36:00,73.7,68.9,29.82,SW,236,2.0,2.0,85,0.00,CLR,,0.00,WeatherDisplay:10.37,2013-09-02 04:36:00,
2013-09-02 00:41:00,73.6,68.8,29.82,SW,236,0.0,0.0,85,0.00,CLR,,0.00,WeatherDisplay:10.37,2013-09-02 04:41:00,
2013-09-02 00:46:00,73.5,68.7,29.82,SW,236,3.0,3.0,85,0.00,CLR,,0.00,WeatherDisplay:10.37,2013-09-02 04:46:00,
2013-09-02 00:51:00,73.5,68.7,29.82,SW,236,3.5,3.5,85,0.00,CLR,,0.00,WeatherDisplay:10.37,2013-09-02 04:51:00,
2013-09-02 00:56:00,73.4,68.6,29.82,SW,236,5.0,5.0,85,0.00,CLR,,0.00,WeatherDisplay:10.37,2013-09-02 04:56:00,
2013-09-02 01:01:00,73.3,68.9,29.82,SW,236,4.0,4.0,86,0.00,FEW,,0.00,WeatherDisplay:10.37,2013-09-02 05:01:00,
2013-09-02 01:06:00,73.2,68.8,29.82,SW,235,4.6,4.6,86,0.00,FEW,,0.00,WeatherDisplay:10.37,2013-09-02 05:06:00,
2013-09-02 01:11:00,73.1,68.7,29.83,SW,234,4.0,4.0,86,0.00,FEW,,0.00,WeatherDisplay:10.37,2013-09-02 05:11:00,
2013-09-02 01:16:00,73.0,68.6,29.83,SW,235,5.0,5.0,86,0.00,FEW,,0.00,WeatherDisplay:10.37,2013-09-02 05:16:00,
2013-09-02 01:21:00,73.0,68.9,29.83,SW,235,4.0,4.0,87,0.00,FEW,,0.00,WeatherDisplay:10.37,2013-09-02 05:21:00,
2013-09-02 01:26:00,72.9,68.5,29.83,SW,235,3.0,3.0,86,0.00,FEW,,0.00,WeatherDisplay:10.37,2013-09-02 05:26:00,
2013-09-02 01:31:00,72.9,68.8,29.83,SW,234,3.5,3.5,87,0.00,FEW,,0.00,WeatherDisplay:10.37,2013-09-02 05:31:00,
2013-09-02 01:36:00,72.8,68.7,29.83,SW,234,3.5,3.5,87,0.00,FEW,,0.00,WeatherDisplay:10.37,2013-09-02 05:36:00,
2013-09-02 01:41:00,72.8,68.7,29.83,SW,234,3.5,3.5,87,0.00,FEW,,0.00,WeatherDisplay:10.37,2013-09-02 05:41:00,
2013-09-02 01:46:00,72.9,68.8,29.83,SW,234,3.5,3.5,87,0.00,FEW,,0.00,WeatherDisplay:10.37,2013-09-02 05:46:00,
2013-09-02 01:51:00,73.0,68.9,29.83,SW,234,3.5,3.5,87,0.00,FEW,,0.00,WeatherDisplay:10.37,2013-09-02 05:51:00,
2013-09-02 01:56:00,73.0,68.9,29.83,SW,234,4.0,4.0,87,0.00,FEW,,0.00,WeatherDisplay:10.37,2013-09-02 05:56:00,
2013-09-02 02:01:00,73.1,69.0,29.83,SW,234,3.5,3.5,87,0.00,OVC,,0.00,WeatherDisplay:10.37,2013-09-02 06:01:00,
2013-09-02 02:06:00,73.1,69.0,29.83,SW,236,6.0,6.0,87,0.00,OVC,,0.00,WeatherDisplay:10.37,2013-09-02 06:06:00,
2013-09-02 02:11:00,73.1,69.0,29.83,SW,234,4.6,4.6,87,0.00,OVC,,0.00,WeatherDisplay:10.37,2013-09-02 06:11:00,
2013-09-02 02:16:00,73.2,69.1,29.83,SW,235,8.1,8.1,87,0.00,OVC,,0.00,WeatherDisplay:10.37,2013-09-02 06:16:00,
2013-09-02 02:21:00,73.2,69.1,29.83,WSW,243,7.0,7.0,87,0.00,OVC,,0.00,WeatherDisplay:10.37,2013-09-02 06:21:00,
2013-09-02 02:26:00,73.3,69.2,29.83,SW,232,6.0,6.0,87,0.00,OVC,,0.00,WeatherDisplay:10.37,2013-09-02 06:26:00,
2013-09-02 02:31:00,73.3,69.2,29.83,SW,230,5.0,5.0,87,0.00,OVC,,0.00,WeatherDisplay:10.37,2013-09-02 06:31:00,
2013-09-02 02:36:00,73.4,69.3,29.83,WSW,239,8.1,8.1,87,0.00,OVC,,0.00,WeatherDisplay:10.37,2013-09-02 06:36:00,
2013-09-02 02:41:00,73.4,69.3,29.83,WSW,242,5.8,5.8,87,0.00,OVC,,0.00,WeatherDisplay:10.37,2013-09-02 06:41:00,
2013-09-02 02:46:00,73.3,69.2,29.83,SW,234,10.4,10.4,87,0.00,OVC,,0.00,WeatherDisplay:10.37,2013-09-02 06:46:00,
2013-09-02 02:51:00,73.3,69.2,29.83,WSW,243,4.0,4.0,87,0.00,OVC,,0.00,WeatherDisplay:10.37,2013-09-02 06:51:00,
2013-09-02 02:56:00,73.3,69.2,29.83,WSW,241,5.0,5.0,87,0.00,OVC,,0.00,WeatherDisplay:10.37,2013-09-02 06:56:00,
2013-09-02 03:01:00,73.3,69.2,29.83,WSW,247,6.0,6.0,87,0.00,SCT,,0.00,WeatherDisplay:10.37,2013-09-02 07:01:00,
2013-09-02 03:06:00,73.3,69.2,29.83,WSW,242,6.0,6.0,87,0.00,SCT,,0.00,WeatherDisplay:10.37,2013-09-02 07:06:00,
2013-09-02 03:11:00,73.2,69.1,29.83,WSW,243,8.1,8.1,87,0.00,SCT,,0.00,WeatherDisplay:10.37,2013-09-02 07:11:00,
2013-09-02 03:16:00,73.1,69.3,29.83,WSW,239,4.0,4.0,88,0.00,SCT,,0.00,WeatherDisplay:10.37,2013-09-02 07:16:00,
2013-09-02 03:21:00,73.0,69.2,29.83,WSW,241,12.7,12.7,88,0.00,SCT,,0.00,WeatherDisplay:10.37,2013-09-02 07:21:00,
2013-09-02 03:26:00,72.9,69.1,29.83,WSW,240,2.3,0.0,88,0.00,SCT,,0.00,WeatherDisplay:10.37,2013-09-02 07:26:00,
2013-09-02 03:31:00,72.9,69.1,29.84,WSW,239,3.0,3.0,88,0.00,SCT,,0.00,WeatherDisplay:10.37,2013-09-02 07:31:00,
2013-09-02 03:36:00,72.8,69.0,29.83,WSW,239,4.0,4.0,88,0.00,SCT,,0.00,WeatherDisplay:10.37,2013-09-02 07:36:00,
2013-09-02 03:41:00,72.9,69.1,29.83,WSW,239,2.3,2.3,88,0.00,SCT,,0.00,WeatherDisplay:10.37,2013-09-02 07:41:00,
2013-09-02 03:46:00,72.9,69.1,29.83,WSW,239,3.5,3.5,88,0.00,SCT,,0.00,WeatherDisplay:10.37,2013-09-02 07:46:00,
2013-09-02 03:51:00,72.9,69.1,29.83,WSW,239,5.0,5.0,88,0.00,SCT,,0.00,WeatherDisplay:10.37,2013-09-02 07:51:00,
2013-09-02 03:56:00,72.8,69.0,29.83,WSW,239,4.6,4.6,88,0.00,SCT,,0.00,WeatherDisplay:10.37,2013-09-02 07:56:00,
2013-09-02 04:01:00,72.8,69.0,29.83,WSW,239,1.1,0.0,88,0.00,OVC,,0.00,WeatherDisplay:10.37,2013-09-02 08:01:00,
2013-09-02 04:06:00,72.8,69.4,29.83,WSW,239,5.0,5.0,89,0.00,OVC,,0.00,WeatherDisplay:10.37,2013-09-02 08:06:00,
2013-09-02 04:11:00,72.7,69.3,29.83,WSW,239,6.0,6.0,89,0.00,OVC,,0.00,WeatherDisplay:10.37,2013-09-02 08:11:00,
2013-09-02 04:16:00,72.7,69.3,29.83,WSW,239,6.0,6.0,89,0.00,OVC,,0.00,WeatherDisplay:10.37,2013-09-02 08:16:00,
2013-09-02 04:21:00,72.6,69.2,29.83,WSW,239,4.0,4.0,89,0.00,OVC,,0.00,WeatherDisplay:10.37,2013-09-02 08:21:00,
2013-09-02 04:26:00,72.6,69.2,29.83,WSW,239,3.5,3.5,89,0.00,OVC,,0.00,WeatherDisplay:10.37,2013-09-02 08:26:00,
2013-09-02 04:31:00,72.5,69.1,29.83,WSW,239,3.5,3.5,89,0.00,OVC,,0.00,WeatherDisplay:10.37,2013-09-02 08:31:00,
2013-09-02 04:36:00,72.5,69.1,29.83,WSW,239,2.3,2.3,89,0.00,OVC,,0.00,WeatherDisplay:10.37,2013-09-02 08:36:00,
2013-09-02 04:41:00,72.4,69.0,29.83,WSW,239,3.5,3.5,89,0.00,OVC,,0.00,WeatherDisplay:10.37,2013-09-02 08:41:00,
2013-09-02 04:46:00,72.3,68.9,29.83,WSW,239,2.3,2.3,89,0.00,OVC,,0.00,WeatherDisplay:10.37,2013-09-02 08:46:00,
2013-09-02 04:51:00,72.2,68.8,29.83,WSW,239,1.1,0.0,89,0.00,OVC,,0.00,WeatherDisplay:10.37,2013-09-02 08:51:00,
2013-09-02 04:56:00,72.1,69.0,29.83,WSW,239,1.1,1.1,90,0.00,OVC,,0.00,WeatherDisplay:10.37,2013-09-02 08:56:00,
2013-09-02 05:01:00,72.0,68.9,29.83,WSW,239,2.0,2.0,90,0.00,OVC,,0.00,WeatherDisplay:10.37,2013-09-02 09:01:00,
2013-09-02 05:06:00,71.9,68.8,29.82,WSW,239,4.0,4.0,90,0.00,OVC,,0.00,WeatherDisplay:10.37,2013-09-02 09:06:00,
2013-09-02 05:11:00,71.9,68.8,29.82,WSW,239,3.5,3.5,90,0.00,OVC,,0.00,WeatherDisplay:10.37,2013-09-02 09:11:00,
2013-09-02 05:16:00,71.8,68.7,29.82,WSW,239,3.5,3.5,90,0.00,OVC,,0.00,WeatherDisplay:10.37,2013-09-02 09:16:00,
2013-09-02 05:21:00,71.7,68.6,29.82,WSW,239,0.0,0.0,90,0.00,OVC,,0.00,WeatherDisplay:10.37,2013-09-02 09:21:00,
2013-09-02 05:26:00,71.7,68.6,29.82,WSW,239,2.3,2.3,90,0.00,OVC,,0.00,WeatherDisplay:10.37,2013-09-02 09:26:00,
2013-09-02 05:31:00,71.6,68.5,29.81,WSW,239,0.0,0.0,90,0.00,OVC,,0.00,WeatherDisplay:10.37,2013-09-02 09:31:00,
2013-09-02 05:36:00,71.5,68.4,29.82,WSW,239,0.0,0.0,90,0.00,OVC,,0.00,WeatherDisplay:10.37,2013-09-02 09:36:00,
2013-09-02 05:41:00,71.4,68.3,29.82,WSW,239,0.0,0.0,90,0.00,OVC,,0.00,WeatherDisplay:10.37,2013-09-02 09:41:00,
2013-09-02 05:46:00,71.4,68.3,29.82,WSW,239,3.5,3.5,90,0.00,OVC,,0.00,WeatherDisplay:10.37,2013-09-02 09:46:00,
2013-09-02 05:51:00,71.3,68.2,29.82,WSW,239,0.0,0.0,90,0.00,OVC,,0.00,WeatherDisplay:10.37,2013-09-02 09:51:00,
2013-09-02 05:56:00,71.3,68.2,29.82,WSW,239,0.0,0.0,90,0.00,OVC,,0.00,WeatherDisplay:10.37,2013-09-02 09:56:00,
2013-09-02 06:01:00,71.2,68.1,29.82,WSW,239,1.1,1.1,90,0.00,CLR,,0.00,WeatherDisplay:10.37,2013-09-02 10:01:00,
2013-09-02 06:06:00,71.1,68.0,29.82,WSW,239,3.5,3.5,90,0.00,CLR,,0.00,WeatherDisplay:10.37,2013-09-02 10:06:00,
2013-09-02 06:11:00,71.0,67.9,29.82,WSW,239,1.0,1.0,90,0.00,CLR,,0.00,WeatherDisplay:10.37,2013-09-02 10:11:00,
2013-09-02 06:16:00,70.9,67.8,29.82,WSW,239,2.3,2.3,90,0.00,CLR,,0.00,WeatherDisplay:10.37,2013-09-02 10:16:00,
2013-09-02 06:21:00,70.8,67.7,29.82,WSW,239,1.0,1.0,90,0.00,CLR,,0.00,WeatherDisplay:10.37,2013-09-02 10:21:00,
2013-09-02 06:26:00,70.7,67.6,29.82,WSW,239,1.1,0.0,90,0.00,CLR,,0.00,WeatherDisplay:10.37,2013-09-02 10:26:00,
2013-09-02 06:31:00,70.6,67.5,29.82,WSW,239,3.5,3.5,90,0.00,CLR,,0.00,WeatherDisplay:10.37,2013-09-02 10:31:00,
2013-09-02 06:36:00,70.5,67.4,29.83,WSW,239,2.3,2.3,90,0.00,CLR,,0.00,WeatherDisplay:10.37,2013-09-02 10:36:00,
2013-09-02 06:41:00,70.5,67.4,29.82,WSW,239,0.0,0.0,90,0.00,CLR,,0.00,WeatherDisplay:10.37,2013-09-02 10:41:00,
2013-09-02 06:46:00,70.4,67.3,29.82,WSW,239,0.0,0.0,90,0.00,CLR,,0.00,WeatherDisplay:10.37,2013-09-02 10:46:00,
2013-09-02 06:51:00,70.4,67.3,29.83,WSW,239,2.3,2.3,90,0.00,CLR,,0.00,WeatherDisplay:10.37,2013-09-02 10:51:00,
2013-09-02 06:56:00,70.3,67.2,29.83,WSW,239,3.5,3.5,90,0.00,CLR,,0.00,WeatherDisplay:10.37,2013-09-02 10:56:00,
2013-09-02 07:01:00,70.3,67.2,29.83,WSW,239,2.3,2.3,90,0.00,CLR,,0.00,WeatherDisplay:10.37,2013-09-02 11:01:00,
2013-09-02 07:06:00,70.3,67.2,29.83,WSW,239,2.3,2.3,90,0.00,CLR,,0.00,WeatherDisplay:10.37,2013-09-02 11:06:00,
2013-09-02 07:11:00,70.2,67.1,29.83,WSW,239,4.0,4.0,90,0.00,CLR,,0.00,WeatherDisplay:10.37,2013-09-02 11:11:00,
2013-09-02 07:16:00,70.2,67.1,29.84,WSW,239,2.0,2.0,90,0.00,CLR,,0.00,WeatherDisplay:10.37,2013-09-02 11:16:00,
2013-09-02 07:21:00,70.1,67.0,29.84,WSW,239,0.0,0.0,90,0.00,CLR,,0.00,WeatherDisplay:10.37,2013-09-02 11:21:00,
2013-09-02 07:26:00,70.1,67.0,29.84,WSW,239,1.0,0.0,90,0.00,CLR,,0.00,WeatherDisplay:10.37,2013-09-02 11:26:00,
2013-09-02 07:31:00,70.1,67.0,29.85,WSW,239,0.0,0.0,90,0.00,CLR,,0.00,WeatherDisplay:10.37,2013-09-02 11:31:00,
2013-09-02 07:36:00,70.2,67.1,29.85,WSW,239,3.0,3.0,90,0.00,CLR,,0.00,WeatherDisplay:10.37,2013-09-02 11:36:00,
2013-09-02 07:41:00,70.2,67.1,29.85,WSW,239,3.0,3.0,90,0.00,CLR,,0.00,WeatherDisplay:10.37,2013-09-02 11:41:00,
2013-09-02 07:46:00,70.2,67.1,29.85,WSW,239,3.5,3.5,90,0.00,CLR,,0.00,WeatherDisplay:10.37,2013-09-02 11:46:00,
2013-09-02 07:51:00,70.3,67.2,29.86,WSW,239,2.3,2.3,90,0.00,CLR,,0.00,WeatherDisplay:10.37,2013-09-02 11:51:00,
2013-09-02 07:56:00,70.3,67.2,29.86,WSW,239,2.3,0.0,90,0.00,CLR,,0.00,WeatherDisplay:10.37,2013-09-02 11:56:00,
2013-09-02 08:01:00,70.4,67.3,29.86,WSW,239,0.0,0.0,90,0.00,CLR,,0.00,WeatherDisplay:10.37,2013-09-02 12:01:00,
2013-09-02 08:06:00,70.4,67.3,29.86,WSW,239,0.0,0.0,90,0.00,SCT,,0.00,WeatherDisplay:10.37,2013-09-02 12:06:00,
2013-09-02 08:11:00,70.5,67.4,29.86,WSW,239,1.1,1.1,90,0.00,SCT,,0.00,WeatherDisplay:10.37,2013-09-02 12:11:00,
2013-09-02 08:16:00,70.5,67.4,29.86,WSW,239,3.5,3.5,90,0.00,SCT,,0.00,WeatherDisplay:10.37,2013-09-02 12:16:00,
2013-09-02 08:21:00,70.6,67.5,29.86,WSW,239,1.1,0.0,90,0.00,SCT,,0.00,WeatherDisplay:10.37,2013-09-02 12:21:00,
2013-09-02 08:26:00,70.7,67.6,29.86,WSW,239,3.5,3.5,90,0.00,SCT,,0.00,WeatherDisplay:10.37,2013-09-02 12:26:00,
2013-09-02 08:31:00,70.9,67.8,29.86,WSW,239,1.0,1.0,90,0.00,SCT,,0.00,WeatherDisplay:10.37,2013-09-02 12:31:00,
2013-09-02 08:36:00,71.0,67.9,29.87,WSW,239,4.0,4.0,90,0.00,SCT,,0.00,WeatherDisplay:10.37,2013-09-02 12:36:00,
2013-09-02 08:41:00,71.2,68.1,29.87,WSW,239,3.5,3.5,90,0.00,SCT,,0.00,WeatherDisplay:10.37,2013-09-02 12:41:00,
2013-09-02 08:46:00,71.3,68.2,29.87,WSW,240,6.0,6.0,90,0.00,SCT,,0.00,WeatherDisplay:10.37,2013-09-02 12:46:00,
2013-09-02 08:51:00,71.4,68.3,29.87,WSW,244,3.5,3.5,90,0.00,SCT,,0.00,WeatherDisplay:10.37,2013-09-02 12:51:00,
2013-09-02 08:56:00,71.5,68.4,29.87,WSW,244,3.0,3.0,90,0.00,SCT,,0.00,WeatherDisplay:10.37,2013-09-02 12:56:00,
2013-09-02 09:01:00,71.6,68.5,29.87,WSW,244,4.0,4.0,90,0.00,SCT,,0.00,WeatherDisplay:10.37,2013-09-02 13:01:00,
2013-09-02 09:06:00,71.6,68.5,29.87,WSW,244,1.1,1.1,90,0.00,OVC,,0.00,WeatherDisplay:10.37,2013-09-02 13:06:00,
2013-09-02 09:11:00,71.7,68.6,29.87,WSW,244,3.5,3.5,90,0.00,OVC,,0.00,WeatherDisplay:10.37,2013-09-02 13:11:00,
2013-09-02 09:16:00,71.8,68.7,29.87,WSW,244,2.3,2.3,90,0.00,OVC,,0.00,WeatherDisplay:10.37,2013-09-02 13:16:00,
2013-09-02 09:21:00,71.9,68.8,29.87,WSW,244,4.0,4.0,90,0.00,OVC,,0.00,WeatherDisplay:10.37,2013-09-02 13:21:00,
2013-09-02 09:26:00,72.0,68.9,29.87,WSW,244,3.5,3.5,90,0.00,OVC,,0.00,WeatherDisplay:10.37,2013-09-02 13:26:00,
2013-09-02 09:31:00,72.2,69.1,29.88,WSW,244,1.1,1.1,90,0.00,OVC,,0.00,WeatherDisplay:10.37,2013-09-02 13:31:00,
2013-09-02 09:36:00,72.2,69.1,29.88,WSW,244,0.0,0.0,90,0.00,OVC,,0.00,WeatherDisplay:10.37,2013-09-02 13:36:00,
2013-09-02 09:41:00,72.4,69.3,29.88,WSW,244,2.3,2.3,90,0.00,OVC,,0.00,WeatherDisplay:10.37,2013-09-02 13:41:00,
2013-09-02 09:46:00,72.6,69.5,29.88,WSW,244,4.0,4.0,90,0.00,OVC,,0.00,WeatherDisplay:10.37,2013-09-02 13:46:00,
2013-09-02 09:51:00,72.7,69.6,29.89,WSW,245,3.5,3.5,90,0.00,OVC,,0.00,WeatherDisplay:10.37,2013-09-02 13:51:00,
2013-09-02 09:56:00,72.9,69.8,29.89,WSW,245,3.0,3.0,90,0.00,OVC,,0.00,WeatherDisplay:10.37,2013-09-02 13:56:00,
2013-09-02 10:01:00,73.1,70.0,29.89,WSW,247,3.5,3.5,90,0.00,OVC,,0.00,WeatherDisplay:10.37,2013-09-02 14:01:00,
2013-09-02 10:06:00,73.3,70.2,29.89,WSW,247,2.3,2.3,90,0.00,OVC,,0.00,WeatherDisplay:10.37,2013-09-02 14:06:00,
2013-09-02 10:11:00,73.3,70.2,29.89,WSW,249,4.0,4.0,90,0.00,OVC,,0.00,WeatherDisplay:10.37,2013-09-02 14:11:00,
2013-09-02 10:16:00,73.4,70.0,29.89,WSW,249,1.1,1.1,89,0.00,OVC,,0.00,WeatherDisplay:10.37,2013-09-02 14:16:00,
2013-09-02 10:21:00,73.5,69.7,29.89,WSW,249,4.0,4.0,88,0.00,OVC,,0.00,WeatherDisplay:10.37,2013-09-02 14:21:00,
2013-09-02 10:26:00,73.7,69.6,29.89,WSW,249,3.5,3.5,87,0.00,OVC,,0.00,WeatherDisplay:10.37,2013-09-02 14:26:00,
2013-09-02 10:31:00,74.0,69.5,29.89,WSW,257,3.5,3.5,86,0.00,OVC,,0.00,WeatherDisplay:10.37,2013-09-02 14:31:00,
2013-09-02 10:36:00,74.0,69.5,29.89,WSW,257,3.5,3.5,86,0.00,OVC,,0.00,WeatherDisplay:10.37,2013-09-02 14:36:00,
2013-09-02 10:41:00,74.1,69.6,29.89,WSW,257,4.0,4.0,86,0.00,OVC,,0.00,WeatherDisplay:10.37,2013-09-02 14:41:00,
2013-09-02 10:46:00,74.2,69.4,29.89,WSW,251,8.1,8.1,85,0.00,OVC,,0.00,WeatherDisplay:10.37,2013-09-02 14:46:00,
2013-09-02 10:51:00,74.7,69.9,29.89,WSW,251,3.5,3.5,85,0.00,OVC,,0.00,WeatherDisplay:10.37,2013-09-02 14:51:00,
2013-09-02 10:56:00,74.8,69.6,29.89,WSW,249,2.3,2.3,84,0.00,OVC,,0.00,WeatherDisplay:10.37,2013-09-02 14:56:00,
2013-09-02 11:01:00,75.1,69.9,29.89,WSW,249,3.5,3.5,84,0.00,OVC,,0.00,WeatherDisplay:10.37,2013-09-02 15:01:00,
2013-09-02 11:06:00,75.5,70.0,29.89,WSW,241,6.0,6.0,83,0.00,OVC,,0.00,WeatherDisplay:10.37,2013-09-02 15:06:00,
2013-09-02 11:11:00,75.7,70.2,29.89,WSW,247,7.0,7.0,83,0.00,OVC,,0.00,WeatherDisplay:10.37,2013-09-02 15:11:00,
2013-09-02 11:16:00,75.8,70.3,29.89,WSW,247,3.5,3.5,83,0.00,OVC,,0.00,WeatherDisplay:10.37,2013-09-02 15:16:00,
2013-09-02 11:21:00,75.8,70.3,29.90,WSW,243,5.0,5.0,83,0.00,OVC,,0.00,WeatherDisplay:10.37,2013-09-02 15:21:00,
2013-09-02 11:26:00,76.7,71.1,29.90,WSW,244,3.0,3.0,83,0.00,OVC,,0.00,WeatherDisplay:10.37,2013-09-02 15:26:00,
2013-09-02 11:31:00,77.3,71.0,29.89,WSW,247,3.5,3.5,81,0.00,OVC,,0.00,WeatherDisplay:10.37,2013-09-02 15:31:00,
2013-09-02 11:36:00,77.3,70.3,29.89,WSW,247,6.9,6.9,79,0.00,OVC,,0.00,WeatherDisplay:10.37,2013-09-02 15:36:00,
2013-09-02 11:41:00,77.2,70.5,29.89,WSW,247,5.0,5.0,80,0.00,OVC,,0.00,WeatherDisplay:10.37,2013-09-02 15:41:00,
2013-09-02 11:46:00,77.4,70.7,29.89,WSW,247,2.0,2.0,80,0.00,OVC,,0.00,WeatherDisplay:10.37,2013-09-02 15:46:00,
2013-09-02 11:51:00,78.2,71.5,29.89,WSW,245,3.5,3.5,80,0.00,OVC,,0.00,WeatherDisplay:10.37,2013-09-02 15:51:00,
2013-09-02 11:56:00,78.2,70.8,29.89,WSW,241,5.0,5.0,78,0.00,OVC,,0.00,WeatherDisplay:10.37,2013-09-02 15:56:00,
2013-09-02 12:01:00,77.9,70.5,29.90,WSW,240,8.1,8.1,78,0.00,BKN,,0.00,WeatherDisplay:10.37,2013-09-02 16:01:00,
2013-09-02 12:06:00,77.7,70.7,29.90,WSW,240,1.1,1.1,79,0.00,BKN,,0.00,WeatherDisplay:10.37,2013-09-02 16:06:00,
2013-09-02 12:11:00,77.8,70.8,29.90,WSW,240,2.3,2.3,79,0.00,BKN,,0.00,WeatherDisplay:10.37,2013-09-02 16:11:00,
2013-09-02 12:16:00,77.5,70.5,29.90,WSW,240,5.0,5.0,79,0.00,BKN,,0.00,WeatherDisplay:10.37,2013-09-02 16:16:00,
2013-09-02 12:21:00,77.3,70.3,29.89,WSW,238,4.0,4.0,79,0.00,BKN,,0.00,WeatherDisplay:10.37,2013-09-02 16:21:00,
2013-09-02 12:26:00,77.3,70.3,29.89,WSW,239,6.0,6.0,79,0.00,BKN,,0.00,WeatherDisplay:10.37,2013-09-02 16:26:00,
2013-09-02 12:32:00,78.2,71.2,29.89,WSW,237,6.9,6.9,79,0.00,BKN,,0.00,WeatherDisplay:10.37,2013-09-02 16:32:00,
2013-09-02 12:37:00,78.7,70.9,29.89,WSW,240,8.1,8.1,77,0.00,BKN,,0.00,WeatherDisplay:10.37,2013-09-02 16:37:00,
2013-09-02 12:42:00,78.9,71.1,29.89,WSW,243,7.0,7.0,77,0.00,BKN,,0.00,WeatherDisplay:10.37,2013-09-02 16:42:00,
2013-09-02 12:47:00,79.3,71.1,29.89,WSW,239,3.5,3.5,76,0.00,BKN,,0.00,WeatherDisplay:10.37,2013-09-02 16:47:00,
2013-09-02 12:52:00,79.4,71.2,29.89,WSW,239,7.0,7.0,76,0.00,BKN,,0.00,WeatherDisplay:10.37,2013-09-02 16:52:00,
2013-09-02 12:57:00,79.7,71.5,29.89,WSW,241,6.0,6.0,76,0.00,BKN,,0.00,WeatherDisplay:10.37,2013-09-02 16:57:00,
2013-09-02 13:02:00,80.2,71.6,29.88,WSW,239,7.0,7.0,75,0.00,SCT,,0.00,WeatherDisplay:10.37,2013-09-02 17:02:00,
2013-09-02 13:07:00,80.5,71.8,29.88,SW,236,1.1,0.0,75,0.00,SCT,,0.00,WeatherDisplay:10.37,2013-09-02 17:07:00,
2013-09-02 13:12:00,80.9,71.8,29.88,SW,231,7.0,7.0,74,0.00,SCT,,0.00,WeatherDisplay:10.37,2013-09-02 17:12:00,
2013-09-02 13:17:00,80.2,70.8,29.88,SW,232,4.0,4.0,73,0.00,SCT,,0.00,WeatherDisplay:10.37,2013-09-02 17:17:00,
2013-09-02 13:22:00,80.3,71.6,29.88,SW,232,6.0,6.0,75,0.00,SCT,,0.00,WeatherDisplay:10.37,2013-09-02 17:22:00,
2013-09-02 13:27:00,80.4,71.7,29.88,SW,233,5.0,5.0,75,0.00,SCT,,0.00,WeatherDisplay:10.37,2013-09-02 17:27:00,
2013-09-02 13:32:00,80.9,72.2,29.88,SW,234,3.5,3.5,75,0.00,SCT,,0.00,WeatherDisplay:10.37,2013-09-02 17:32:00,
2013-09-02 13:37:00,81.4,71.9,29.87,WSW,240,7.0,7.0,73,0.00,SCT,,0.00,WeatherDisplay:10.37,2013-09-02 17:37:00,
2013-09-02 13:42:00,80.7,72.0,29.87,WSW,239,3.5,3.5,75,0.00,SCT,,0.00,WeatherDisplay:10.37,2013-09-02 17:42:00,
2013-09-02 13:47:00,81.2,72.1,29.87,SW,236,6.9,6.9,74,0.00,SCT,,0.00,WeatherDisplay:10.37,2013-09-02 17:47:00,
2013-09-02 13:52:00,81.4,72.3,29.87,SW,230,4.0,4.0,74,0.00,SCT,,0.00,WeatherDisplay:10.37,2013-09-02 17:52:00,
2013-09-02 13:57:00,81.6,72.1,29.87,SW,230,5.0,5.0,73,0.00,SCT,,0.00,WeatherDisplay:10.37,2013-09-02 17:57:00,
2013-09-02 14:02:00,81.9,71.6,29.87,SW,235,9.2,9.2,71,0.00,FEW,,0.00,WeatherDisplay:10.37,2013-09-02 18:02:00,
2013-09-02 14:07:00,82.5,72.6,29.86,SW,236,5.8,0.0,72,0.00,FEW,,0.00,WeatherDisplay:10.37,2013-09-02 18:07:00,
2013-09-02 14:12:00,82.6,71.8,29.86,SW,234,8.1,8.1,70,0.00,FEW,,0.00,WeatherDisplay:10.37,2013-09-02 18:12:00,
2013-09-02 14:17:00,82.2,72.3,29.86,WSW,245,6.0,6.0,72,0.00,FEW,,0.00,WeatherDisplay:10.37,2013-09-02 18:17:00,
2013-09-02 14:22:00,82.4,72.5,29.86,WSW,241,6.0,6.0,72,0.00,FEW,,0.00,WeatherDisplay:10.37,2013-09-02 18:22:00,
2013-09-02 14:27:00,82.5,72.1,29.86,WSW,242,9.2,9.2,71,0.00,FEW,,0.00,WeatherDisplay:10.37,2013-09-02 18:27:00,
2013-09-02 14:32:00,82.2,72.3,29.86,WSW,241,4.0,4.0,72,0.00,FEW,,0.00,WeatherDisplay:10.37,2013-09-02 18:32:00,
2013-09-02 14:37:00,82.5,72.6,29.85,SW,236,5.8,5.8,72,0.00,FEW,,0.00,WeatherDisplay:10.37,2013-09-02 18:37:00,
2013-09-02 14:43:00,82.5,72.6,29.85,WSW,237,7.0,7.0,72,0.00,FEW,,0.00,WeatherDisplay:10.37,2013-09-02 18:43:00,
2013-09-02 14:48:00,83.1,73.1,29.85,WSW,241,4.0,4.0,72,0.00,FEW,,0.00,WeatherDisplay:10.37,2013-09-02 18:48:00,
2013-09-02 14:53:00,83.4,73.0,29.84,WSW,249,5.8,5.8,71,0.00,FEW,,0.00,WeatherDisplay:10.37,2013-09-02 18:53:00,
2013-09-02 14:58:00,83.4,72.6,29.84,SW,232,11.5,11.5,70,0.00,FEW,,0.00,WeatherDisplay:10.37,2013-09-02 18:58:00,
2013-09-02 15:03:00,83.2,72.0,29.84,WSW,244,3.5,3.5,69,0.00,FEW,,0.00,WeatherDisplay:10.37,2013-09-02 19:03:00,
2013-09-02 15:08:00,83.5,72.3,29.84,WSW,239,5.0,5.0,69,0.00,FEW,,0.00,WeatherDisplay:10.37,2013-09-02 19:08:00,
2013-09-02 15:13:00,83.5,72.7,29.84,SW,233,5.0,5.0,70,0.00,FEW,,0.00,WeatherDisplay:10.37,2013-09-02 19:13:00,
2013-09-02 15:18:00,83.9,71.8,29.83,WSW,237,9.2,9.2,67,0.00,FEW,,0.00,WeatherDisplay:10.37,2013-09-02 19:18:00,
2013-09-02 15:23:00,84.1,72.4,29.83,SW,234,6.0,6.0,68,0.00,FEW,,0.00,WeatherDisplay:10.37,2013-09-02 19:23:00,
2013-09-02 15:28:00,84.9,72.7,29.83,West,259,7.0,7.0,67,0.00,FEW,,0.00,WeatherDisplay:10.37,2013-09-02 19:28:00,
2013-09-02 15:33:00,85.1,72.9,29.83,SSW,200,7.0,7.0,67,0.00,FEW,,0.00,WeatherDisplay:10.37,2013-09-02 19:33:00,
2013-09-02 15:38:00,85.0,72.4,29.82,SW,230,8.1,8.1,66,0.00,FEW,,0.00,WeatherDisplay:10.37,2013-09-02 19:38:00,
2013-09-02 15:43:00,85.2,73.0,29.82,WNW,291,8.1,8.1,67,0.00,FEW,,0.00,WeatherDisplay:10.37,2013-09-02 19:43:00,
2013-09-02 15:48:00,85.7,72.6,29.82,SW,234,7.0,7.0,65,0.00,FEW,,0.00,WeatherDisplay:10.37,2013-09-02 19:48:00,
2013-09-02 15:53:00,85.9,72.3,29.82,SW,232,10.4,10.4,64,0.00,FEW,,0.00,WeatherDisplay:10.37,2013-09-02 19:53:00,
2013-09-02 15:58:00,85.2,72.1,29.82,WSW,253,5.0,5.0,65,0.00,FEW,,0.00,WeatherDisplay:10.37,2013-09-02 19:58:00,
2013-09-02 16:03:00,84.6,71.5,29.82,WSW,237,11.5,11.5,65,0.00,FEW,,0.00,WeatherDisplay:10.37,2013-09-02 20:03:00,
2013-09-02 16:08:00,84.5,72.3,29.82,WSW,247,10.4,10.4,67,0.00,FEW,,0.00,WeatherDisplay:10.37,2013-09-02 20:08:00,
2013-09-02 16:13:00,83.7,72.4,29.82,WSW,247,4.0,4.0,69,0.00,FEW,,0.00,WeatherDisplay:10.37,2013-09-02 20:13:00,
2013-09-02 16:18:00,83.2,71.5,29.81,WSW,245,5.8,5.8,68,0.00,FEW,,0.00,WeatherDisplay:10.37,2013-09-02 20:18:00,
2013-09-02 16:23:00,83.0,71.3,29.81,WSW,257,5.0,5.0,68,0.00,FEW,,0.00,WeatherDisplay:10.37,2013-09-02 20:23:00,
2013-09-02 16:28:00,82.7,71.5,29.81,WSW,241,4.0,4.0,69,0.00,FEW,,0.00,WeatherDisplay:10.37,2013-09-02 20:28:00,
2013-09-02 16:33:00,82.5,71.3,29.82,WSW,245,6.0,6.0,69,0.00,FEW,,0.00,WeatherDisplay:10.37,2013-09-02 20:33:00,
2013-09-02 16:38:00,82.1,71.8,29.81,WSW,240,6.0,6.0,71,0.00,FEW,,0.00,WeatherDisplay:10.37,2013-09-02 20:38:00,
2013-09-02 16:43:00,81.7,71.0,29.81,WSW,246,9.0,9.0,70,0.00,FEW,,0.00,WeatherDisplay:10.37,2013-09-02 20:43:00,
2013-09-02 16:48:00,81.6,71.3,29.82,WSW,244,2.3,2.3,71,0.00,FEW,,0.00,WeatherDisplay:10.37,2013-09-02 20:48:00,
2013-09-02 16:53:00,81.5,71.6,29.82,WSW,244,2.3,2.3,72,0.00,FEW,,0.00,WeatherDisplay:10.37,2013-09-02 20:53:00,
2013-09-02 16:58:00,81.3,71.4,29.83,WSW,247,6.0,6.0,72,0.00,FEW,,0.00,WeatherDisplay:10.37,2013-09-02 20:58:00,
2013-09-02 17:03:00,81.1,71.2,29.82,WSW,247,3.5,3.5,72,0.00,CLR,,0.00,WeatherDisplay:10.37,2013-09-02 21:03:00,
2013-09-02 17:08:00,81.0,71.5,29.82,WSW,247,4.0,4.0,73,0.00,CLR,,0.00,WeatherDisplay:10.37,2013-09-02 21:08:00,
2013-09-02 17:13:00,80.8,71.3,29.82,WSW,247,4.0,4.0,73,0.00,CLR,,0.00,WeatherDisplay:10.37,2013-09-02 21:13:00,
2013-09-02 17:18:00,80.7,71.6,29.82,WSW,247,4.0,4.0,74,0.00,CLR,,0.00,WeatherDisplay:10.37,2013-09-02 21:18:00,
2013-09-02 17:23:00,78.7,68.5,29.82,NE,47,10.4,10.4,71,0.00,CLR,,0.00,WeatherDisplay:10.37,2013-09-02 21:23:00,
2013-09-02 17:28:00,76.9,68.0,29.82,NE,37,11.0,11.0,74,0.00,CLR,,0.00,WeatherDisplay:10.37,2013-09-02 21:28:00,
2013-09-02 17:33:00,76.1,67.6,29.82,ENE,67,6.9,6.9,75,0.00,CLR,,0.00,WeatherDisplay:10.37,2013-09-02 21:33:00,
2013-09-02 17:38:00,75.7,68.0,29.82,NE,53,4.6,4.6,77,0.00,CLR,,0.00,WeatherDisplay:10.37,2013-09-02 21:38:00,
2013-09-02 17:43:00,75.8,68.4,29.82,NE,53,2.3,2.3,78,0.00,CLR,,0.00,WeatherDisplay:10.37,2013-09-02 21:43:00,
2013-09-02 17:48:00,76.2,68.5,29.82,NE,54,0.0,0.0,77,0.00,CLR,,0.00,WeatherDisplay:10.37,2013-09-02 21:48:00,
2013-09-02 17:53:00,76.7,68.6,29.82,NE,54,1.0,0.0,76,0.00,CLR,,0.00,WeatherDisplay:10.37,2013-09-02 21:53:00,
2013-09-02 17:58:00,77.0,68.9,29.82,NE,54,0.0,0.0,76,0.00,CLR,,0.00,WeatherDisplay:10.37,2013-09-02 21:58:00,
2013-09-02 18:03:00,77.3,68.8,29.82,NE,54,2.3,2.3,75,0.00,BKN,,0.00,WeatherDisplay:10.37,2013-09-02 22:03:00,
2013-09-02 18:08:00,77.3,68.8,29.82,NE,54,4.0,4.0,75,0.00,BKN,,0.00,WeatherDisplay:10.37,2013-09-02 22:08:00,
2013-09-02 18:14:00,77.2,69.0,29.82,NE,53,0.0,0.0,76,0.00,BKN,,0.00,WeatherDisplay:10.37,2013-09-02 22:14:00,
2013-09-02 18:19:00,77.2,69.0,29.82,NE,54,0.0,0.0,76,0.00,BKN,,0.00,WeatherDisplay:10.37,2013-09-02 22:19:00,
2013-09-02 18:24:00,77.1,68.9,29.81,NE,53,0.0,0.0,76,0.00,BKN,,0.00,WeatherDisplay:10.37,2013-09-02 22:24:00,
2013-09-02 18:29:00,77.4,69.2,29.81,NE,54,0.0,0.0,76,0.00,BKN,,0.00,WeatherDisplay:10.37,2013-09-02 22:29:00,
2013-09-02 18:34:00,78.0,69.0,29.81,NE,54,5.0,5.0,74,0.00,BKN,,0.00,WeatherDisplay:10.37,2013-09-02 22:34:00,
2013-09-02 18:39:00,78.7,69.3,29.81,NE,52,3.5,3.5,73,0.00,BKN,,0.00,WeatherDisplay:10.37,2013-09-02 22:39:00,
2013-09-02 18:44:00,79.4,69.6,29.81,NE,52,4.0,4.0,72,0.00,BKN,,0.00,WeatherDisplay:10.37,2013-09-02 22:44:00,
2013-09-02 18:49:00,79.6,69.0,29.81,NE,51,1.1,1.1,70,0.00,BKN,,0.00,WeatherDisplay:10.37,2013-09-02 22:49:00,
2013-09-02 18:54:00,79.6,68.5,29.81,SW,234,8.1,8.1,69,0.00,BKN,,0.00,WeatherDisplay:10.37,2013-09-02 22:54:00,
2013-09-02 18:59:00,79.5,68.9,29.81,WSW,243,2.0,2.0,70,0.00,BKN,,0.00,WeatherDisplay:10.37,2013-09-02 22:59:00,
2013-09-02 19:04:00,79.6,69.4,29.81,WSW,243,3.5,3.5,71,0.00,CLR,,0.00,WeatherDisplay:10.37,2013-09-02 23:04:00,
2013-09-02 19:09:00,79.6,68.5,29.81,WSW,243,3.5,3.5,69,0.00,CLR,,0.00,WeatherDisplay:10.37,2013-09-02 23:09:00,
2013-09-02 19:14:00,79.6,68.5,29.82,WSW,243,2.3,0.0,69,0.00,CLR,,0.00,WeatherDisplay:10.37,2013-09-02 23:14:00,
2013-09-02 19:19:00,79.4,68.8,29.82,WSW,243,2.3,2.3,70,0.00,CLR,,0.00,WeatherDisplay:10.37,2013-09-02 23:19:00,
2013-09-02 19:24:00,78.9,68.3,29.82,WSW,249,4.0,4.0,70,0.00,CLR,,0.00,WeatherDisplay:10.37,2013-09-02 23:24:00,
2013-09-02 19:29:00,78.7,68.5,29.82,West,276,4.6,4.6,71,0.00,CLR,,0.00,WeatherDisplay:10.37,2013-09-02 23:29:00,
2013-09-02 19:34:00,78.3,68.5,29.82,West,278,2.3,2.3,72,0.00,CLR,,0.00,WeatherDisplay:10.37,2013-09-02 23:34:00,
2013-09-02 19:39:00,78.0,68.6,29.82,WNW,290,3.5,3.5,73,0.00,CLR,,0.00,WeatherDisplay:10.37,2013-09-02 23:39:00,
2013-09-02 19:44:00,77.8,68.0,29.83,WNW,290,3.5,3.5,72,0.00,CLR,,0.00,WeatherDisplay:10.37,2013-09-02 23:44:00,
2013-09-02 19:49:00,77.6,67.9,29.82,WNW,290,1.1,1.1,72,0.00,CLR,,0.00,WeatherDisplay:10.37,2013-09-02 23:49:00,
2013-09-02 19:54:00,77.4,68.1,29.83,WNW,290,0.0,0.0,73,0.00,CLR,,0.00,WeatherDisplay:10.37,2013-09-02 23:54:00,
2013-09-02 19:59:00,77.3,68.0,29.83,WNW,290,3.5,3.5,73,0.00,CLR,,0.00,WeatherDisplay:10.37,2013-09-02 23:59:00,
2013-09-02 20:04:00,77.1,67.8,29.83,WNW,290,1.1,1.1,73,0.00,BKN,,0.00,WeatherDisplay:10.37,2013-09-03 00:04:00,
2013-09-02 20:09:00,76.9,68.0,29.83,WNW,290,2.0,2.0,74,0.00,BKN,,0.00,WeatherDisplay:10.37,2013-09-03 00:09:00,
2013-09-02 20:14:00,76.7,67.8,29.83,WNW,290,0.0,0.0,74,0.00,BKN,,0.00,WeatherDisplay:10.37,2013-09-03 00:14:00,
2013-09-02 20:19:00,76.5,68.0,29.83,WNW,290,0.0,0.0,75,0.00,BKN,,0.00,WeatherDisplay:10.37,2013-09-03 00:19:00,
2013-09-02 20:24:00,76.3,67.8,29.84,WNW,290,0.0,0.0,75,0.00,BKN,,0.00,WeatherDisplay:10.37,2013-09-03 00:24:00,
2013-09-02 20:29:00,76.1,67.6,29.84,WNW,290,0.0,0.0,75,0.00,BKN,,0.00,WeatherDisplay:10.37,2013-09-03 00:29:00,
2013-09-02 20:34:00,76.0,67.5,29.84,WNW,290,0.0,0.0,75,0.00,BKN,,0.00,WeatherDisplay:10.37,2013-09-03 00:34:00,
2013-09-02 20:39:00,75.8,67.7,29.84,WNW,290,0.0,0.0,76,0.00,BKN,,0.00,WeatherDisplay:10.37,2013-09-03 00:39:00,
2013-09-02 20:44:00,75.6,67.5,29.84,WNW,290,0.0,0.0,76,0.00,BKN,,0.00,WeatherDisplay:10.37,2013-09-03 00:44:00,
2013-09-02 20:49:00,75.5,67.8,29.84,WNW,290,0.0,0.0,77,0.00,BKN,,0.00,WeatherDisplay:10.37,2013-09-03 00:49:00,
2013-09-02 20:55:00,75.3,67.6,29.84,WNW,290,0.0,0.0,77,0.00,BKN,,0.00,WeatherDisplay:10.37,2013-09-03 00:55:00,
2013-09-02 21:00:00,75.2,67.5,29.84,WNW,290,0.0,0.0,77,0.00,BKN,,0.00,WeatherDisplay:10.37,2013-09-03 01:00:00,
2013-09-02 21:05:00,75.0,67.7,29.84,WNW,290,0.0,0.0,78,0.00,FEW,,0.00,WeatherDisplay:10.37,2013-09-03 01:05:00,
2013-09-02 21:10:00,74.9,67.6,29.84,WNW,290,0.0,0.0,78,0.00,FEW,,0.00,WeatherDisplay:10.37,2013-09-03 01:10:00,
2013-09-02 21:15:00,74.8,67.5,29.84,WNW,290,0.0,0.0,78,0.00,FEW,,0.00,WeatherDisplay:10.37,2013-09-03 01:15:00,
2013-09-02 21:20:00,74.6,67.7,29.84,WNW,290,0.0,0.0,79,0.00,FEW,,0.00,WeatherDisplay:10.37,2013-09-03 01:20:00,
2013-09-02 21:25:00,74.5,67.6,29.84,WNW,290,0.0,0.0,79,0.00,FEW,,0.00,WeatherDisplay:10.37,2013-09-03 01:25:00,
2013-09-02 21:30:00,74.3,67.7,29.85,WNW,290,1.1,1.1,80,0.00,FEW,,0.00,WeatherDisplay:10.37,2013-09-03 01:30:00,
2013-09-02 21:35:00,74.2,67.6,29.84,WNW,290,3.5,3.5,80,0.00,FEW,,0.00,WeatherDisplay:10.37,2013-09-03 01:35:00,
2013-09-02 21:40:00,74.3,67.7,29.84,WNW,290,3.5,3.5,80,0.00,FEW,,0.00,WeatherDisplay:10.37,2013-09-03 01:40:00,
2013-09-02 21:45:00,74.4,67.8,29.84,WNW,290,0.0,0.0,80,0.00,FEW,,0.00,WeatherDisplay:10.37,2013-09-03 01:45:00,
2013-09-02 21:50:00,74.4,67.8,29.84,WNW,290,1.1,1.1,80,0.00,FEW,,0.00,WeatherDisplay:10.37,2013-09-03 01:50:00,
2013-09-02 21:55:00,74.5,67.9,29.84,WNW,290,0.0,0.0,80,0.00,FEW,,0.00,WeatherDisplay:10.37,2013-09-03 01:55:00,
2013-09-02 22:00:00,74.6,68.0,29.84,WNW,290,1.1,0.0,80,0.00,FEW,,0.00,WeatherDisplay:10.37,2013-09-03 02:00:00,
2013-09-02 22:05:00,74.6,68.0,29.84,WNW,290,0.0,0.0,80,0.00,FEW,,0.00,WeatherDisplay:10.37,2013-09-03 02:05:00,
2013-09-02 22:10:00,74.6,68.0,29.84,WNW,290,1.1,1.1,80,0.00,FEW,,0.00,WeatherDisplay:10.37,2013-09-03 02:10:00,
2013-09-02 22:15:00,74.6,68.0,29.84,WNW,290,0.0,0.0,80,0.00,FEW,,0.00,WeatherDisplay:10.37,2013-09-03 02:15:00,
2013-09-02 22:20:00,74.6,68.0,29.84,WNW,290,0.0,0.0,80,0.00,FEW,,0.00,WeatherDisplay:10.37,2013-09-03 02:20:00,
2013-09-02 22:25:00,74.6,68.0,29.85,WNW,290,0.0,0.0,80,0.00,FEW,,0.00,WeatherDisplay:10.37,2013-09-03 02:25:00,
2013-09-02 22:30:00,74.7,68.1,29.85,WNW,290,1.1,0.0,80,0.00,FEW,,0.00,WeatherDisplay:10.37,2013-09-03 02:30:00,
2013-09-02 22:35:00,74.6,68.0,29.85,WNW,290,1.1,1.1,80,0.00,FEW,,0.00,WeatherDisplay:10.37,2013-09-03 02:35:00,
2013-09-02 22:40:00,74.5,68.3,29.85,WNW,290,0.0,0.0,81,0.00,FEW,,0.00,WeatherDisplay:10.37,2013-09-03 02:40:00,
2013-09-02 22:45:00,74.2,68.3,29.85,WNW,290,0.0,0.0,82,0.00,FEW,,0.00,WeatherDisplay:10.37,2013-09-03 02:45:00,
2013-09-02 22:50:00,74.0,68.5,29.85,WNW,290,0.0,0.0,83,0.00,FEW,,0.00,WeatherDisplay:10.37,2013-09-03 02:50:00,
2013-09-02 22:55:00,73.9,68.4,29.84,WNW,290,0.0,0.0,83,0.00,FEW,,0.00,WeatherDisplay:10.37,2013-09-03 02:55:00,
2013-09-02 23:00:00,73.7,68.6,29.84,WNW,290,0.0,0.0,84,0.00,FEW,,0.00,WeatherDisplay:10.37,2013-09-03 03:00:00,
2013-09-02 23:05:00,73.7,68.6,29.85,WNW,290,0.0,0.0,84,0.00,BKN,,0.00,WeatherDisplay:10.37,2013-09-03 03:05:00,
2013-09-02 23:10:00,73.6,68.5,29.85,WNW,290,0.0,0.0,84,0.00,BKN,,0.00,WeatherDisplay:10.37,2013-09-03 03:10:00,
2013-09-02 23:15:00,73.5,68.7,29.85,WNW,290,0.0,0.0,85,0.00,BKN,,0.00,WeatherDisplay:10.37,2013-09-03 03:15:00,
2013-09-02 23:20:00,73.5,68.7,29.85,WNW,290,0.0,0.0,85,0.00,BKN,,0.00,WeatherDisplay:10.37,2013-09-03 03:20:00,
2013-09-02 23:25:00,73.5,68.7,29.85,WNW,290,0.0,0.0,85,0.00,BKN,,0.00,WeatherDisplay:10.37,2013-09-03 03:25:00,
2013-09-02 23:30:00,73.4,69.0,29.85,WNW,290,0.0,0.0,86,0.00,BKN,,0.00,WeatherDisplay:10.37,2013-09-03 03:30:00,
2013-09-02 23:36:00,73.3,68.9,29.85,WNW,290,0.0,0.0,86,0.00,BKN,,0.00,WeatherDisplay:10.37,2013-09-03 03:36:00,
2013-09-02 23:41:00,73.2,68.8,29.86,WNW,290,0.0,0.0,86,0.00,BKN,,0.00,WeatherDisplay:10.37,2013-09-03 03:41:00,
2013-09-02 23:46:00,73.0,68.6,29.86,WNW,290,0.0,0.0,86,0.00,BKN,,0.00,WeatherDisplay:10.37,2013-09-03 03:46:00,
2013-09-02 23:51:00,72.9,68.5,29.86,WNW,290,0.0,0.0,86,0.00,BKN,,0.00,WeatherDisplay:10.37,2013-09-03 03:51:00,
2013-09-02 23:56:00,72.8,68.4,29.86,WNW,290,0.0,0.0,86,0.00,BKN,,0.00,WeatherDisplay:10.37,2013-09-03 03:56:00,